Guatemala City, Guatemala
Current Conditions -  °F | °C
As of 2:00 PM on Saturday 20 Dec 2014 (Local Time) from MGGT Reporting Station
Few Clouds Few Clouds  
Wind Chill: 75°   Ceiling: Unl
Heat Index: 75°   Visibility: 6mi
Dew Point: 52°   Wind: 12mph
Humidity: 44%   Direction: 20°NNE
Pressure: 30.24"   Gusts: NA
Location:  14.58°N, 90.52°W
Report Text: MGGT 202000Z 02010KT 9999 FEW022TCU 24/11 Q1024 A3024 FEW080 TCU SSE
Loading
Personal Weather Stations






























Interactive Weather Map New forecast layout! Learn more

10-Day Weather Forecast

Advertisements
Track Severe Weather on mobile